sensor_id;sensor_type;location;lat;lon;timestamp;P1;durP1;ratioP1;P2;durP2;ratioP2
57832;SDS011;43667;53.036;6.740;2023-05-07T00:01:27;24.65;;;21.27;;
57832;SDS011;43667;53.036;6.740;2023-05-07T00:03:53;23.45;;;20.98;;
57832;SDS011;43667;53.036;6.740;2023-05-07T00:06:19;25.63;;;22.10;;
57832;SDS011;43667;53.036;6.740;2023-05-07T00:08:44;28.10;;;21.23;;
57832;SDS011;43667;53.036;6.740;2023-05-07T00:11:10;25.10;;;21.40;;
57832;SDS011;43667;53.036;6.740;2023-05-07T00:13:35;25.65;;;22.88;;
57832;SDS011;43667;53.036;6.740;2023-05-07T00:16:01;26.35;;;23.02;;
57832;SDS011;43667;53.036;6.740;2023-05-07T00:18:28;28.13;;;22.88;;
57832;SDS011;43667;53.036;6.740;2023-05-07T00:20:53;27.90;;;23.48;;
57832;SDS011;43667;53.036;6.740;2023-05-07T00:23:19;25.77;;;21.60;;
57832;SDS011;43667;53.036;6.740;2023-05-07T00:25:44;27.80;;;22.70;;
57832;SDS011;43667;53.036;6.740;2023-05-07T00:28:10;29.02;;;24.58;;
57832;SDS011;43667;53.036;6.740;2023-05-07T00:30:38;23.83;;;21.25;;
57832;SDS011;43667;53.036;6.740;2023-05-07T00:33:04;27.40;;;23.65;;
57832;SDS011;43667;53.036;6.740;2023-05-07T00:35:30;29.60;;;24.25;;
57832;SDS011;43667;53.036;6.740;2023-05-07T00:37:55;27.80;;;23.58;;
57832;SDS011;43667;53.036;6.740;2023-05-07T00:40:21;27.55;;;23.08;;
57832;SDS011;43667;53.036;6.740;2023-05-07T00:42:47;28.33;;;23.70;;
57832;SDS011;43667;53.036;6.740;2023-05-07T00:45:14;30.30;;;25.15;;
57832;SDS011;43667;53.036;6.740;2023-05-07T00:47:40;32.83;;;23.73;;
57832;SDS011;43667;53.036;6.740;2023-05-07T00:50:06;31.42;;;24.08;;
57832;SDS011;43667;53.036;6.740;2023-05-07T00:52:33;29.05;;;25.05;;
57832;SDS011;43667;53.036;6.740;2023-05-07T00:55:00;27.63;;;24.00;;
57832;SDS011;43667;53.036;6.740;2023-05-07T00:57:29;32.72;;;24.77;;
57832;SDS011;43667;53.036;6.740;2023-05-07T01:00:07;29.98;;;25.08;;
57832;SDS011;43667;53.036;6.740;2023-05-07T01:02:38;29.55;;;24.90;;
57832;SDS011;43667;53.036;6.740;2023-05-07T01:05:04;30.25;;;22.55;;
57832;SDS011;43667;53.036;6.740;2023-05-07T01:07:32;31.52;;;25.30;;
57832;SDS011;43667;53.036;6.740;2023-05-07T01:09:59;32.30;;;25.70;;
57832;SDS011;43667;53.036;6.740;2023-05-07T01:12:26;28.25;;;24.08;;
57832;SDS011;43667;53.036;6.740;2023-05-07T01:14:53;28.17;;;24.77;;
57832;SDS011;43667;53.036;6.740;2023-05-07T01:17:19;29.23;;;26.10;;
57832;SDS011;43667;53.036;6.740;2023-05-07T01:19:45;29.77;;;24.33;;
57832;SDS011;43667;53.036;6.740;2023-05-07T01:22:11;29.60;;;24.88;;
57832;SDS011;43667;53.036;6.740;2023-05-07T01:24:39;27.20;;;23.83;;
57832;SDS011;43667;53.036;6.740;2023-05-07T01:27:05;28.98;;;24.98;;
57832;SDS011;43667;53.036;6.740;2023-05-07T01:29:31;28.13;;;25.08;;
57832;SDS011;43667;53.036;6.740;2023-05-07T01:31:57;28.90;;;24.90;;
57832;SDS011;43667;53.036;6.740;2023-05-07T01:34:25;34.80;;;27.42;;
57832;SDS011;43667;53.036;6.740;2023-05-07T01:36:53;29.77;;;26.17;;
57832;SDS011;43667;53.036;6.740;2023-05-07T01:39:21;31.80;;;27.80;;
57832;SDS011;43667;53.036;6.740;2023-05-07T01:41:49;28.80;;;25.83;;
57832;SDS011;43667;53.036;6.740;2023-05-07T01:44:15;36.95;;;28.80;;
57832;SDS011;43667;53.036;6.740;2023-05-07T01:46:43;34.40;;;29.80;;
57832;SDS011;43667;53.036;6.740;2023-05-07T01:49:09;33.25;;;29.13;;
57832;SDS011;43667;53.036;6.740;2023-05-07T01:51:34;36.10;;;30.05;;
57832;SDS011;43667;53.036;6.740;2023-05-07T01:54:01;34.80;;;30.80;;
57832;SDS011;43667;53.036;6.740;2023-05-07T01:56:26;35.90;;;30.92;;
57832;SDS011;43667;53.036;6.740;2023-05-07T01:58:52;37.38;;;31.35;;
57832;SDS011;43667;53.036;6.740;2023-05-07T02:01:17;40.58;;;32.63;;
57832;SDS011;43667;53.036;6.740;2023-05-07T02:03:43;39.65;;;30.98;;
57832;SDS011;43667;53.036;6.740;2023-05-07T02:06:09;35.67;;;31.52;;
57832;SDS011;43667;53.036;6.740;2023-05-07T02:08:35;39.38;;;31.10;;
57832;SDS011;43667;53.036;6.740;2023-05-07T02:11:01;40.55;;;33.20;;
57832;SDS011;43667;53.036;6.740;2023-05-07T02:13:29;40.13;;;33.22;;
57832;SDS011;43667;53.036;6.740;2023-05-07T02:15:58;41.75;;;34.78;;
57832;SDS011;43667;53.036;6.740;2023-05-07T02:18:24;46.97;;;35.80;;
57832;SDS011;43667;53.036;6.740;2023-05-07T02:20:49;42.10;;;33.38;;
57832;SDS011;43667;53.036;6.740;2023-05-07T02:23:15;44.78;;;34.67;;
57832;SDS011;43667;53.036;6.740;2023-05-07T02:25:40;44.13;;;35.27;;
57832;SDS011;43667;53.036;6.740;2023-05-07T02:28:06;46.30;;;35.97;;
57832;SDS011;43667;53.036;6.740;2023-05-07T02:30:32;45.22;;;34.63;;
57832;SDS011;43667;53.036;6.740;2023-05-07T02:32:58;45.45;;;35.15;;
57832;SDS011;43667;53.036;6.740;2023-05-07T02:35:24;43.65;;;34.13;;
57832;SDS011;43667;53.036;6.740;2023-05-07T02:37:50;45.42;;;36.72;;
57832;SDS011;43667;53.036;6.740;2023-05-07T02:40:16;53.22;;;38.95;;
57832;SDS011;43667;53.036;6.740;2023-05-07T02:42:42;47.00;;;36.55;;
57832;SDS011;43667;53.036;6.740;2023-05-07T02:45:07;46.78;;;36.95;;
57832;SDS011;43667;53.036;6.740;2023-05-07T02:47:34;43.38;;;35.28;;
57832;SDS011;43667;53.036;6.740;2023-05-07T02:49:59;45.13;;;34.58;;
57832;SDS011;43667;53.036;6.740;2023-05-07T02:52:25;46.97;;;37.10;;
57832;SDS011;43667;53.036;6.740;2023-05-07T02:54:50;45.28;;;35.75;;
57832;SDS011;43667;53.036;6.740;2023-05-07T02:57:16;51.83;;;37.35;;
57832;SDS011;43667;53.036;6.740;2023-05-07T02:59:42;55.05;;;39.97;;
57832;SDS011;43667;53.036;6.740;2023-05-07T03:02:08;47.67;;;37.05;;
57832;SDS011;43667;53.036;6.740;2023-05-07T03:04:33;51.90;;;39.08;;
57832;SDS011;43667;53.036;6.740;2023-05-07T03:06:59;50.13;;;37.38;;
57832;SDS011;43667;53.036;6.740;2023-05-07T03:09:24;48.05;;;37.72;;
57832;SDS011;43667;53.036;6.740;2023-05-07T03:11:50;50.58;;;38.45;;
57832;SDS011;43667;53.036;6.740;2023-05-07T03:14:16;49.58;;;38.72;;
57832;SDS011;43667;53.036;6.740;2023-05-07T03:16:42;49.63;;;38.25;;
57832;SDS011;43667;53.036;6.740;2023-05-07T03:19:07;53.85;;;39.05;;
57832;SDS011;43667;53.036;6.740;2023-05-07T03:21:36;53.90;;;39.90;;
57832;SDS011;43667;53.036;6.740;2023-05-07T03:24:01;53.78;;;39.00;;
57832;SDS011;43667;53.036;6.740;2023-05-07T03:26:27;46.90;;;37.65;;
57832;SDS011;43667;53.036;6.740;2023-05-07T03:28:53;53.83;;;40.20;;
57832;SDS011;43667;53.036;6.740;2023-05-07T03:31:18;52.47;;;39.50;;
57832;SDS011;43667;53.036;6.740;2023-05-07T03:33:54;49.30;;;39.33;;
57832;SDS011;43667;53.036;6.740;2023-05-07T03:36:21;48.97;;;37.65;;
57832;SDS011;43667;53.036;6.740;2023-05-07T03:38:47;49.53;;;39.28;;
57832;SDS011;43667;53.036;6.740;2023-05-07T03:41:13;48.78;;;37.70;;
57832;SDS011;43667;53.036;6.740;2023-05-07T03:43:39;46.58;;;37.40;;
57832;SDS011;43667;53.036;6.740;2023-05-07T03:46:05;44.70;;;36.30;;
57832;SDS011;43667;53.036;6.740;2023-05-07T03:48:30;48.38;;;36.15;;
57832;SDS011;43667;53.036;6.740;2023-05-07T03:50:57;48.53;;;38.63;;
57832;SDS011;43667;53.036;6.740;2023-05-07T03:53:23;45.55;;;36.22;;
57832;SDS011;43667;53.036;6.740;2023-05-07T03:55:48;44.92;;;36.33;;
57832;SDS011;43667;53.036;6.740;2023-05-07T03:58:14;44.50;;;37.05;;
57832;SDS011;43667;53.036;6.740;2023-05-07T04:00:40;45.85;;;36.03;;
57832;SDS011;43667;53.036;6.740;2023-05-07T04:03:06;41.97;;;34.72;;
57832;SDS011;43667;53.036;6.740;2023-05-07T04:05:32;45.05;;;35.95;;
57832;SDS011;43667;53.036;6.740;2023-05-07T04:07:58;44.10;;;35.20;;
57832;SDS011;43667;53.036;6.740;2023-05-07T04:10:24;43.63;;;35.95;;
57832;SDS011;43667;53.036;6.740;2023-05-07T04:12:50;42.15;;;35.58;;
57832;SDS011;43667;53.036;6.740;2023-05-07T04:15:15;40.28;;;34.22;;
57832;SDS011;43667;53.036;6.740;2023-05-07T04:17:41;42.25;;;35.22;;
57832;SDS011;43667;53.036;6.740;2023-05-07T04:20:12;42.20;;;35.20;;
57832;SDS011;43667;53.036;6.740;2023-05-07T04:22:39;44.10;;;35.83;;
57832;SDS011;43667;53.036;6.740;2023-05-07T04:25:05;40.55;;;33.17;;
57832;SDS011;43667;53.036;6.740;2023-05-07T04:27:33;36.13;;;31.98;;
57832;SDS011;43667;53.036;6.740;2023-05-07T04:29:58;41.22;;;34.60;;
57832;SDS011;43667;53.036;6.740;2023-05-07T04:32:25;39.03;;;33.38;;
57832;SDS011;43667;53.036;6.740;2023-05-07T04:34:51;39.70;;;33.00;;
57832;SDS011;43667;53.036;6.740;2023-05-07T04:37:17;42.55;;;33.25;;
57832;SDS011;43667;53.036;6.740;2023-05-07T04:39:42;39.15;;;32.53;;
57832;SDS011;43667;53.036;6.740;2023-05-07T04:42:08;40.38;;;32.97;;
57832;SDS011;43667;53.036;6.740;2023-05-07T04:44:35;44.70;;;35.15;;
57832;SDS011;43667;53.036;6.740;2023-05-07T04:47:02;39.28;;;34.10;;
57832;SDS011;43667;53.036;6.740;2023-05-07T04:49:27;41.03;;;33.85;;
57832;SDS011;43667;53.036;6.740;2023-05-07T04:51:53;40.47;;;33.20;;
57832;SDS011;43667;53.036;6.740;2023-05-07T04:54:18;36.88;;;31.15;;
57832;SDS011;43667;53.036;6.740;2023-05-07T04:56:44;35.30;;;31.50;;
57832;SDS011;43667;53.036;6.740;2023-05-07T04:59:10;40.50;;;33.17;;
57832;SDS011;43667;53.036;6.740;2023-05-07T05:01:35;41.08;;;32.72;;
57832;SDS011;43667;53.036;6.740;2023-05-07T05:04:01;34.88;;;31.05;;
57832;SDS011;43667;53.036;6.740;2023-05-07T05:06:27;34.00;;;29.92;;
57832;SDS011;43667;53.036;6.740;2023-05-07T05:08:52;35.80;;;31.15;;
57832;SDS011;43667;53.036;6.740;2023-05-07T05:11:18;32.40;;;28.90;;
57832;SDS011;43667;53.036;6.740;2023-05-07T05:13:43;37.70;;;31.63;;
57832;SDS011;43667;53.036;6.740;2023-05-07T05:16:09;32.22;;;28.75;;
57832;SDS011;43667;53.036;6.740;2023-05-07T05:18:35;34.10;;;28.77;;
57832;SDS011;43667;53.036;6.740;2023-05-07T05:21:00;33.60;;;28.67;;
57832;SDS011;43667;53.036;6.740;2023-05-07T05:23:26;32.75;;;28.33;;
57832;SDS011;43667;53.036;6.740;2023-05-07T05:25:55;31.88;;;28.42;;
57832;SDS011;43667;53.036;6.740;2023-05-07T05:28:22;34.65;;;29.50;;
57832;SDS011;43667;53.036;6.740;2023-05-07T05:30:48;33.65;;;28.45;;
57832;SDS011;43667;53.036;6.740;2023-05-07T05:33:14;33.58;;;28.73;;
57832;SDS011;43667;53.036;6.740;2023-05-07T05:35:41;34.92;;;27.60;;
57832;SDS011;43667;53.036;6.740;2023-05-07T05:38:07;32.97;;;27.05;;
57832;SDS011;43667;53.036;6.740;2023-05-07T05:40:32;33.45;;;28.23;;
57832;SDS011;43667;53.036;6.740;2023-05-07T05:42:58;30.40;;;27.10;;
57832;SDS011;43667;53.036;6.740;2023-05-07T05:45:24;31.13;;;27.90;;
57832;SDS011;43667;53.036;6.740;2023-05-07T05:47:50;31.73;;;28.33;;
57832;SDS011;43667;53.036;6.740;2023-05-07T05:50:16;33.13;;;28.63;;
57832;SDS011;43667;53.036;6.740;2023-05-07T05:52:41;31.17;;;27.42;;
57832;SDS011;43667;53.036;6.740;2023-05-07T05:55:07;30.52;;;27.25;;
57832;SDS011;43667;53.036;6.740;2023-05-07T05:57:33;30.98;;;26.55;;
57832;SDS011;43667;53.036;6.740;2023-05-07T05:59:59;30.63;;;27.55;;
57832;SDS011;43667;53.036;6.740;2023-05-07T06:02:25;30.63;;;27.40;;
57832;SDS011;43667;53.036;6.740;2023-05-07T06:04:51;32.38;;;27.40;;
57832;SDS011;43667;53.036;6.740;2023-05-07T06:07:17;33.15;;;26.52;;
57832;SDS011;43667;53.036;6.740;2023-05-07T06:09:42;31.38;;;27.52;;
57832;SDS011;43667;53.036;6.740;2023-05-07T06:12:08;30.50;;;27.20;;
57832;SDS011;43667;53.036;6.740;2023-05-07T06:14:33;30.67;;;26.70;;
57832;SDS011;43667;53.036;6.740;2023-05-07T06:16:59;28.73;;;25.65;;
57832;SDS011;43667;53.036;6.740;2023-05-07T06:19:27;29.23;;;26.15;;
57832;SDS011;43667;53.036;6.740;2023-05-07T06:22:10;28.67;;;25.70;;
57832;SDS011;43667;53.036;6.740;2023-05-07T06:24:36;30.02;;;26.00;;
57832;SDS011;43667;53.036;6.740;2023-05-07T06:27:01;29.45;;;26.33;;
57832;SDS011;43667;53.036;6.740;2023-05-07T06:29:27;28.33;;;24.88;;
57832;SDS011;43667;53.036;6.740;2023-05-07T06:31:53;29.38;;;26.20;;
57832;SDS011;43667;53.036;6.740;2023-05-07T06:34:19;29.15;;;25.90;;
57832;SDS011;43667;53.036;6.740;2023-05-07T06:36:44;27.88;;;25.02;;
57832;SDS011;43667;53.036;6.740;2023-05-07T06:39:10;28.98;;;25.98;;
57832;SDS011;43667;53.036;6.740;2023-05-07T06:41:35;29.25;;;26.13;;
57832;SDS011;43667;53.036;6.740;2023-05-07T06:44:02;29.73;;;26.52;;
57832;SDS011;43667;53.036;6.740;2023-05-07T06:46:28;28.48;;;25.58;;
57832;SDS011;43667;53.036;6.740;2023-05-07T06:48:54;29.77;;;25.98;;
57832;SDS011;43667;53.036;6.740;2023-05-07T06:51:21;28.70;;;25.60;;
57832;SDS011;43667;53.036;6.740;2023-05-07T06:53:47;30.65;;;26.40;;
57832;SDS011;43667;53.036;6.740;2023-05-07T06:56:12;29.30;;;26.20;;
57832;SDS011;43667;53.036;6.740;2023-05-07T06:58:38;27.35;;;24.60;;
57832;SDS011;43667;53.036;6.740;2023-05-07T07:01:03;28.77;;;25.83;;
57832;SDS011;43667;53.036;6.740;2023-05-07T07:03:29;31.42;;;26.50;;
57832;SDS011;43667;53.036;6.740;2023-05-07T07:05:55;29.00;;;26.00;;
57832;SDS011;43667;53.036;6.740;2023-05-07T07:08:21;31.52;;;27.08;;
57832;SDS011;43667;53.036;6.740;2023-05-07T07:10:47;29.90;;;26.65;;
57832;SDS011;43667;53.036;6.740;2023-05-07T07:13:13;28.77;;;25.45;;
57832;SDS011;43667;53.036;6.740;2023-05-07T07:15:39;31.60;;;26.85;;
57832;SDS011;43667;53.036;6.740;2023-05-07T07:18:05;29.63;;;25.83;;
57832;SDS011;43667;53.036;6.740;2023-05-07T07:20:31;30.92;;;26.58;;
57832;SDS011;43667;53.036;6.740;2023-05-07T07:22:57;31.10;;;27.05;;
57832;SDS011;43667;53.036;6.740;2023-05-07T07:25:23;28.05;;;25.08;;
57832;SDS011;43667;53.036;6.740;2023-05-07T07:27:49;27.95;;;24.25;;
57832;SDS011;43667;53.036;6.740;2023-05-07T07:30:15;28.20;;;24.92;;
57832;SDS011;43667;53.036;6.740;2023-05-07T07:32:40;30.13;;;27.05;;
57832;SDS011;43667;53.036;6.740;2023-05-07T07:35:06;29.83;;;25.88;;
57832;SDS011;43667;53.036;6.740;2023-05-07T07:37:32;30.35;;;25.92;;
57832;SDS011;43667;53.036;6.740;2023-05-07T07:39:58;30.45;;;26.17;;
57832;SDS011;43667;53.036;6.740;2023-05-07T07:42:23;27.65;;;24.73;;
57832;SDS011;43667;53.036;6.740;2023-05-07T07:44:49;30.67;;;27.35;;
57832;SDS011;43667;53.036;6.740;2023-05-07T07:47:15;30.67;;;27.38;;
57832;SDS011;43667;53.036;6.740;2023-05-07T07:49:40;29.73;;;25.85;;
57832;SDS011;43667;53.036;6.740;2023-05-07T07:52:06;28.38;;;25.50;;
57832;SDS011;43667;53.036;6.740;2023-05-07T07:54:32;29.80;;;26.60;;
57832;SDS011;43667;53.036;6.740;2023-05-07T07:56:57;30.00;;;26.83;;
57832;SDS011;43667;53.036;6.740;2023-05-07T07:59:23;30.25;;;27.13;;
57832;SDS011;43667;53.036;6.740;2023-05-07T08:01:49;30.05;;;26.85;;
57832;SDS011;43667;53.036;6.740;2023-05-07T08:04:15;30.38;;;26.65;;
57832;SDS011;43667;53.036;6.740;2023-05-07T08:06:41;28.23;;;25.38;;
57832;SDS011;43667;53.036;6.740;2023-05-07T08:09:07;29.50;;;26.33;;
57832;SDS011;43667;53.036;6.740;2023-05-07T08:11:33;28.83;;;25.83;;
57832;SDS011;43667;53.036;6.740;2023-05-07T08:13:59;29.13;;;26.10;;
57832;SDS011;43667;53.036;6.740;2023-05-07T08:16:25;28.90;;;25.50;;
57832;SDS011;43667;53.036;6.740;2023-05-07T08:18:51;30.08;;;26.00;;
57832;SDS011;43667;53.036;6.740;2023-05-07T08:21:16;29.88;;;25.45;;
57832;SDS011;43667;53.036;6.740;2023-05-07T08:23:42;28.10;;;24.50;;
57832;SDS011;43667;53.036;6.740;2023-05-07T08:26:08;27.88;;;24.90;;
57832;SDS011;43667;53.036;6.740;2023-05-07T08:28:33;27.10;;;24.23;;
57832;SDS011;43667;53.036;6.740;2023-05-07T08:31:00;28.15;;;24.90;;
57832;SDS011;43667;53.036;6.740;2023-05-07T08:33:26;26.35;;;23.65;;
57832;SDS011;43667;53.036;6.740;2023-05-07T08:35:52;25.13;;;22.45;;
57832;SDS011;43667;53.036;6.740;2023-05-07T08:38:18;25.75;;;23.13;;
57832;SDS011;43667;53.036;6.740;2023-05-07T08:40:43;30.60;;;24.90;;
57832;SDS011;43667;53.036;6.740;2023-05-07T08:43:11;27.15;;;23.90;;
57832;SDS011;43667;53.036;6.740;2023-05-07T08:45:39;25.40;;;22.65;;
57832;SDS011;43667;53.036;6.740;2023-05-07T08:48:08;25.75;;;22.95;;
57832;SDS011;43667;53.036;6.740;2023-05-07T08:50:35;24.58;;;22.08;;
57832;SDS011;43667;53.036;6.740;2023-05-07T08:53:04;24.60;;;22.05;;
57832;SDS011;43667;53.036;6.740;2023-05-07T08:55:30;23.73;;;21.25;;
57832;SDS011;43667;53.036;6.740;2023-05-07T08:57:56;23.85;;;20.58;;
57832;SDS011;43667;53.036;6.740;2023-05-07T09:00:22;22.42;;;19.73;;
57832;SDS011;43667;53.036;6.740;2023-05-07T09:02:48;22.27;;;20.05;;
57832;SDS011;43667;53.036;6.740;2023-05-07T09:05:13;23.15;;;20.75;;
57832;SDS011;43667;53.036;6.740;2023-05-07T09:07:39;20.98;;;18.77;;
57832;SDS011;43667;53.036;6.740;2023-05-07T09:10:05;21.75;;;19.60;;
57832;SDS011;43667;53.036;6.740;2023-05-07T09:12:31;21.48;;;19.30;;
57832;SDS011;43667;53.036;6.740;2023-05-07T09:14:58;21.88;;;19.67;;
57832;SDS011;43667;53.036;6.740;2023-05-07T09:17:24;25.80;;;18.40;;
57832;SDS011;43667;53.036;6.740;2023-05-07T09:19:50;21.08;;;19.08;;
57832;SDS011;43667;53.036;6.740;2023-05-07T09:22:18;20.80;;;18.60;;
57832;SDS011;43667;53.036;6.740;2023-05-07T09:24:48;21.60;;;18.70;;
57832;SDS011;43667;53.036;6.740;2023-05-07T09:27:14;21.23;;;19.13;;
57832;SDS011;43667;53.036;6.740;2023-05-07T09:29:41;20.15;;;18.05;;
57832;SDS011;43667;53.036;6.740;2023-05-07T09:32:07;20.85;;;18.65;;
57832;SDS011;43667;53.036;6.740;2023-05-07T09:34:34;20.85;;;18.85;;
57832;SDS011;43667;53.036;6.740;2023-05-07T09:37:04;20.83;;;18.63;;
57832;SDS011;43667;53.036;6.740;2023-05-07T09:39:46;21.13;;;19.02;;
57832;SDS011;43667;53.036;6.740;2023-05-07T09:42:13;25.02;;;18.77;;
57832;SDS011;43667;53.036;6.740;2023-05-07T09:44:45;20.48;;;18.40;;
57832;SDS011;43667;53.036;6.740;2023-05-07T09:47:11;20.30;;;18.30;;
57832;SDS011;43667;53.036;6.740;2023-05-07T09:49:38;20.23;;;18.23;;
57832;SDS011;43667;53.036;6.740;2023-05-07T09:52:07;20.17;;;18.02;;
57832;SDS011;43667;53.036;6.740;2023-05-07T09:54:35;19.75;;;17.67;;
57832;SDS011;43667;53.036;6.740;2023-05-07T09:57:03;20.35;;;18.25;;
57832;SDS011;43667;53.036;6.740;2023-05-07T09:59:30;20.40;;;18.27;;
57832;SDS011;43667;53.036;6.740;2023-05-07T10:01:58;20.63;;;17.42;;
57832;SDS011;43667;53.036;6.740;2023-05-07T10:04:27;19.50;;;17.65;;
57832;SDS011;43667;53.036;6.740;2023-05-07T10:06:54;22.05;;;17.95;;
57832;SDS011;43667;53.036;6.740;2023-05-07T10:09:23;17.27;;;15.57;;
57832;SDS011;43667;53.036;6.740;2023-05-07T10:11:51;18.63;;;16.70;;
57832;SDS011;43667;53.036;6.740;2023-05-07T10:14:19;18.98;;;17.00;;
57832;SDS011;43667;53.036;6.740;2023-05-07T10:16:46;18.48;;;16.52;;
57832;SDS011;43667;53.036;6.740;2023-05-07T10:19:12;18.83;;;17.02;;
57832;SDS011;43667;53.036;6.740;2023-05-07T10:21:43;17.65;;;15.95;;
57832;SDS011;43667;53.036;6.740;2023-05-07T10:24:25;18.45;;;16.63;;
57832;SDS011;43667;53.036;6.740;2023-05-07T10:26:52;18.35;;;16.48;;
57832;SDS011;43667;53.036;6.740;2023-05-07T10:32:14;19.48;;;16.05;;
57832;SDS011;43667;53.036;6.740;2023-05-07T10:34:43;16.98;;;15.20;;
57832;SDS011;43667;53.036;6.740;2023-05-07T10:37:12;17.33;;;15.73;;
57832;SDS011;43667;53.036;6.740;2023-05-07T10:39:38;17.08;;;15.38;;
57832;SDS011;43667;53.036;6.740;2023-05-07T10:42:09;17.58;;;15.98;;
57832;SDS011;43667;53.036;6.740;2023-05-07T10:44:36;17.23;;;15.63;;
57832;SDS011;43667;53.036;6.740;2023-05-07T10:47:09;16.42;;;14.82;;
57832;SDS011;43667;53.036;6.740;2023-05-07T10:54:45;16.08;;;14.38;;
57832;SDS011;43667;53.036;6.740;2023-05-07T11:00:03;17.48;;;15.77;;
57832;SDS011;43667;53.036;6.740;2023-05-07T11:03:04;16.33;;;14.82;;
57832;SDS011;43667;53.036;6.740;2023-05-07T11:05:32;15.50;;;14.00;;
57832;SDS011;43667;53.036;6.740;2023-05-07T11:07:58;15.88;;;14.38;;
57832;SDS011;43667;53.036;6.740;2023-05-07T11:13:13;14.20;;;12.90;;
57832;SDS011;43667;53.036;6.740;2023-05-07T11:15:40;15.18;;;13.68;;
57832;SDS011;43667;53.036;6.740;2023-05-07T11:18:11;16.67;;;13.60;;
57832;SDS011;43667;53.036;6.740;2023-05-07T11:20:57;15.80;;;14.27;;
57832;SDS011;43667;53.036;6.740;2023-05-07T11:26:05;14.60;;;13.25;;
57832;SDS011;43667;53.036;6.740;2023-05-07T11:28:36;15.20;;;13.90;;
57832;SDS011;43667;53.036;6.740;2023-05-07T11:31:03;15.63;;;14.25;;
57832;SDS011;43667;53.036;6.740;2023-05-07T11:33:30;13.98;;;12.68;;
57832;SDS011;43667;53.036;6.740;2023-05-07T11:35:56;14.48;;;12.82;;
57832;SDS011;43667;53.036;6.740;2023-05-07T11:38:22;14.13;;;12.82;;
57832;SDS011;43667;53.036;6.740;2023-05-07T11:43:20;14.30;;;12.93;;
57832;SDS011;43667;53.036;6.740;2023-05-07T11:45:46;13.70;;;12.40;;
57832;SDS011;43667;53.036;6.740;2023-05-07T11:48:13;14.25;;;12.95;;
57832;SDS011;43667;53.036;6.740;2023-05-07T11:50:51;14.20;;;12.80;;
57832;SDS011;43667;53.036;6.740;2023-05-07T11:53:19;14.00;;;12.68;;
57832;SDS011;43667;53.036;6.740;2023-05-07T11:55:45;14.15;;;12.85;;
57832;SDS011;43667;53.036;6.740;2023-05-07T11:58:12;14.43;;;12.73;;
57832;SDS011;43667;53.036;6.740;2023-05-07T12:00:52;13.70;;;12.40;;
57832;SDS011;43667;53.036;6.740;2023-05-07T12:03:19;14.13;;;12.77;;
57832;SDS011;43667;53.036;6.740;2023-05-07T12:05:45;14.20;;;13.00;;
57832;SDS011;43667;53.036;6.740;2023-05-07T12:08:15;14.57;;;13.23;;
57832;SDS011;43667;53.036;6.740;2023-05-07T12:10:42;13.88;;;12.57;;
57832;SDS011;43667;53.036;6.740;2023-05-07T12:13:21;13.70;;;12.40;;
57832;SDS011;43667;53.036;6.740;2023-05-07T12:15:55;14.10;;;12.02;;
57832;SDS011;43667;53.036;6.740;2023-05-07T12:18:21;13.68;;;12.30;;
57832;SDS011;43667;53.036;6.740;2023-05-07T12:20:50;13.27;;;12.07;;
57832;SDS011;43667;53.036;6.740;2023-05-07T12:23:16;12.95;;;11.80;;
57832;SDS011;43667;53.036;6.740;2023-05-07T12:25:43;14.52;;;13.13;;
57832;SDS011;43667;53.036;6.740;2023-05-07T12:28:17;14.35;;;12.88;;
57832;SDS011;43667;53.036;6.740;2023-05-07T12:30:44;12.57;;;11.43;;
57832;SDS011;43667;53.036;6.740;2023-05-07T12:33:11;12.45;;;11.35;;
57832;SDS011;43667;53.036;6.740;2023-05-07T12:35:38;12.77;;;11.57;;
57832;SDS011;43667;53.036;6.740;2023-05-07T12:38:09;14.43;;;11.13;;
57832;SDS011;43667;53.036;6.740;2023-05-07T12:40:46;12.18;;;11.07;;
57832;SDS011;43667;53.036;6.740;2023-05-07T12:43:19;12.60;;;11.40;;
57832;SDS011;43667;53.036;6.740;2023-05-07T12:45:47;13.27;;;12.10;;
57832;SDS011;43667;53.036;6.740;2023-05-07T12:48:15;11.70;;;10.70;;
57832;SDS011;43667;53.036;6.740;2023-05-07T12:50:41;13.27;;;12.00;;
57832;SDS011;43667;53.036;6.740;2023-05-07T12:53:08;12.57;;;11.48;;
57832;SDS011;43667;53.036;6.740;2023-05-07T12:55:45;12.48;;;11.30;;
57832;SDS011;43667;53.036;6.740;2023-05-07T12:58:16;11.23;;;10.30;;
57832;SDS011;43667;53.036;6.740;2023-05-07T13:00:41;11.45;;;10.45;;
57832;SDS011;43667;53.036;6.740;2023-05-07T13:03:08;12.40;;;11.30;;
57832;SDS011;43667;53.036;6.740;2023-05-07T13:05:37;12.13;;;11.00;;
57832;SDS011;43667;53.036;6.740;2023-05-07T13:08:02;13.38;;;12.18;;
57832;SDS011;43667;53.036;6.740;2023-05-07T13:10:28;12.63;;;11.32;;
57832;SDS011;43667;53.036;6.740;2023-05-07T13:12:53;11.27;;;10.38;;
57832;SDS011;43667;53.036;6.740;2023-05-07T13:15:19;11.57;;;10.38;;
57832;SDS011;43667;53.036;6.740;2023-05-07T13:17:45;12.43;;;11.23;;
57832;SDS011;43667;53.036;6.740;2023-05-07T13:20:11;11.38;;;10.32;;
57832;SDS011;43667;53.036;6.740;2023-05-07T13:22:38;12.55;;;11.48;;
57832;SDS011;43667;53.036;6.740;2023-05-07T13:25:04;11.82;;;10.80;;
57832;SDS011;43667;53.036;6.740;2023-05-07T13:27:30;12.32;;;11.02;;
57832;SDS011;43667;53.036;6.740;2023-05-07T13:29:56;11.93;;;10.77;;
57832;SDS011;43667;53.036;6.740;2023-05-07T13:32:22;11.85;;;10.73;;
57832;SDS011;43667;53.036;6.740;2023-05-07T13:34:47;12.15;;;10.95;;
57832;SDS011;43667;53.036;6.740;2023-05-07T13:37:13;11.82;;;10.73;;
57832;SDS011;43667;53.036;6.740;2023-05-07T13:39:39;12.38;;;10.85;;
57832;SDS011;43667;53.036;6.740;2023-05-07T13:42:05;10.88;;;9.98;;
57832;SDS011;43667;53.036;6.740;2023-05-07T13:44:31;11.10;;;10.20;;
57832;SDS011;43667;53.036;6.740;2023-05-07T13:46:57;11.32;;;10.32;;
57832;SDS011;43667;53.036;6.740;2023-05-07T13:49:22;11.38;;;10.32;;
57832;SDS011;43667;53.036;6.740;2023-05-07T13:51:49;11.32;;;10.23;;
57832;SDS011;43667;53.036;6.740;2023-05-07T13:54:14;10.65;;;9.75;;
57832;SDS011;43667;53.036;6.740;2023-05-07T13:56:40;10.93;;;10.02;;
57832;SDS011;43667;53.036;6.740;2023-05-07T13:59:06;10.63;;;9.73;;
57832;SDS011;43667;53.036;6.740;2023-05-07T14:01:32;10.15;;;8.77;;
57832;SDS011;43667;53.036;6.740;2023-05-07T14:03:57;11.00;;;10.00;;
57832;SDS011;43667;53.036;6.740;2023-05-07T14:06:24;9.15;;;8.35;;
57832;SDS011;43667;53.036;6.740;2023-05-07T14:08:50;8.30;;;7.50;;
57832;SDS011;43667;53.036;6.740;2023-05-07T14:11:15;8.85;;;8.05;;
57832;SDS011;43667;53.036;6.740;2023-05-07T14:13:41;8.93;;;8.13;;
57832;SDS011;43667;53.036;6.740;2023-05-07T14:16:07;8.82;;;8.10;;
57832;SDS011;43667;53.036;6.740;2023-05-07T14:18:32;10.05;;;9.15;;
57832;SDS011;43667;53.036;6.740;2023-05-07T14:20:59;9.40;;;8.50;;
57832;SDS011;43667;53.036;6.740;2023-05-07T14:23:25;9.00;;;8.15;;
57832;SDS011;43667;53.036;6.740;2023-05-07T14:25:52;8.95;;;8.25;;
57832;SDS011;43667;53.036;6.740;2023-05-07T14:28:18;9.25;;;8.45;;
57832;SDS011;43667;53.036;6.740;2023-05-07T14:30:44;9.50;;;8.70;;
57832;SDS011;43667;53.036;6.740;2023-05-07T14:33:09;9.68;;;8.88;;
57832;SDS011;43667;53.036;6.740;2023-05-07T14:35:35;8.98;;;8.18;;
57832;SDS011;43667;53.036;6.740;2023-05-07T14:38:01;8.80;;;7.95;;
57832;SDS011;43667;53.036;6.740;2023-05-07T14:40:26;9.68;;;8.88;;